VIJP/JAI METAR and TAF weather

Enter ICAO airport designator
Station Type Date Time Source
VIJP METAR 2020/11/27 03:00 UTC NOAA

VIJP 270300Z VRB02KT 2000 HZ NSC 16/11 Q1022 NOSIG


Station Type Date Time Source
VIJP Decoded METAR 2020/11/27 03:00 UTC NOAA

Jaipur / Sanganer, India (VIJP) 26-49N 075-48E 390M
Nov 26, 2020 - 10:00 PM EST / 2020.11.27 0300 UTC
Wind: Variable at 2 MPH (2 KT):0
Visibility: 1 mile(s):0
Weather: haze
Temperature: 60 F (16 C)
Dew Point: 51 F (11 C)
Relative Humidity: 72%
Pressure (altimeter): 30.18 in. Hg (1022 hPa)
ob: VIJP 270300Z VRB02KT 2000 HZ NSC 16/11 Q1022 NOSIG
cycle: 3

Station Type Date Time Source
VIJP TAF 2020/11/26 18:00 UTC NOAA

TAF VIJP 261700Z 2618/2724 05006KT 1500 HZ BR FEW030
BECMG 2701/2703 VRB02KT 0800 MIFG
BECMG 2704/2706 36005KT 2000 HZ FEW030 SCT100
BECMG 2707/2709 07006KT 3000 HZ FU
BECMG 2712/2714 VRB03KT 2000 HZ SCT100

Example: see airport list